N39YK KDEN-KCOS
Flight info
| Callsign | N39YK |
|---|---|
| Flight time | 0h 27m |
| Altitude | 13000 |
| Route | PIKES3 DCT FQF DCT LUFSE |
| Aircraft | BE9L/L-VGDW/C |
Departure
| Time | 2026-04-25 23:33 |
|---|---|
| Airport | Denver International Airport (KDEN) |
Arrival
| Time | 2026-04-26 00:00 |
|---|---|
| Airport | City of Colorado Springs Municipal Airport (KCOS) |
| Time | Latitude | Longitude | Altitude | Speed | Heading |
|---|---|---|---|---|---|
| 2026-04-25 22:55 | 39.83882 | -104.66486 | 5437 ft | 0 kts | 360° |
| 2026-04-25 23:16 | 39.83886 | -104.66486 | 5437 ft | 3 kts | 0° |
| 2026-04-25 23:17 | 39.83912 | -104.66443 | 5437 ft | 10 kts | 48° |
| 2026-04-25 23:17 | 39.83947 | -104.66428 | 5437 ft | 0 kts | 3° |
| 2026-04-25 23:17 | 39.83958 | -104.66427 | 5437 ft | 5 kts | 10° |
| 2026-04-25 23:17 | 39.84004 | -104.66373 | 5437 ft | 12 kts | 56° |
| 2026-04-25 23:18 | 39.84018 | -104.66334 | 5437 ft | 0 kts | 79° |
| 2026-04-25 23:19 | 39.84022 | -104.66300 | 5437 ft | 7 kts | 73° |
| 2026-04-25 23:19 | 39.84085 | -104.66253 | 5437 ft | 14 kts | 1° |
| 2026-04-25 23:19 | 39.84205 | -104.66254 | 5437 ft | 19 kts | 360° |
| 2026-04-25 23:20 | 39.84355 | -104.66251 | 5437 ft | 23 kts | 0° |
| 2026-04-25 23:20 | 39.84528 | -104.66248 | 5437 ft | 26 kts | 359° |
| 2026-04-25 23:20 | 39.84699 | -104.66248 | 5437 ft | 24 kts | 0° |
| 2026-04-25 23:20 | 39.84877 | -104.66245 | 5437 ft | 26 kts | 359° |
| 2026-04-25 23:21 | 39.85069 | -104.66245 | 5437 ft | 27 kts | 1° |
| 2026-04-25 23:21 | 39.85206 | -104.66305 | 5437 ft | 21 kts | 273° |
| 2026-04-25 23:21 | 39.85204 | -104.66425 | 5437 ft | 0 kts | 273° |
| 2026-04-25 23:22 | 39.85204 | -104.66426 | 5437 ft | 1 kts | 273° |
| 2026-04-25 23:22 | 39.85210 | -104.66474 | 5437 ft | 9 kts | 290° |
| 2026-04-25 23:22 | 39.85257 | -104.66518 | 5437 ft | 1 kts | 351° |
| 2026-04-25 23:23 | 39.85273 | -104.66654 | 5437 ft | 14 kts | 264° |
| 2026-04-25 23:23 | 39.85273 | -104.66768 | 5437 ft | 3 kts | 265° |
| 2026-04-25 23:23 | 39.85263 | -104.66737 | 5437 ft | 9 kts | 84° |
| 2026-04-25 23:23 | 39.85272 | -104.66626 | 5437 ft | 15 kts | 89° |
| 2026-04-25 23:24 | 39.85294 | -104.66472 | 5437 ft | 15 kts | 91° |
| 2026-04-25 23:24 | 39.85294 | -104.66331 | 5437 ft | 13 kts | 90° |
| 2026-04-25 23:24 | 39.85294 | -104.66286 | 5437 ft | 0 kts | 89° |
| 2026-04-25 23:25 | 39.85294 | -104.66282 | 5437 ft | 3 kts | 86° |
| 2026-04-25 23:25 | 39.85328 | -104.66243 | 5437 ft | 10 kts | 11° |
| 2026-04-25 23:25 | 39.85424 | -104.66239 | 5437 ft | 16 kts | 0° |
| 2026-04-25 23:25 | 39.85509 | -104.66238 | 5437 ft | 20 kts | 0° |
| 2026-04-25 23:26 | 39.85719 | -104.66235 | 5437 ft | 24 kts | 1° |
| 2026-04-25 23:26 | 39.85901 | -104.66233 | 5437 ft | 27 kts | 0° |
| 2026-04-25 23:26 | 39.86092 | -104.66230 | 5437 ft | 28 kts | 0° |
| 2026-04-25 23:26 | 39.86292 | -104.66228 | 5437 ft | 29 kts | 0° |
| 2026-04-25 23:27 | 39.86499 | -104.66225 | 5437 ft | 29 kts | 359° |
| 2026-04-25 23:27 | 39.86706 | -104.66222 | 5437 ft | 30 kts | 1° |
| 2026-04-25 23:27 | 39.86919 | -104.66222 | 5437 ft | 30 kts | 358° |
| 2026-04-25 23:27 | 39.87130 | -104.66219 | 5437 ft | 30 kts | 1° |
| 2026-04-25 23:28 | 39.87344 | -104.66219 | 5437 ft | 30 kts | 0° |
| 2026-04-25 23:28 | 39.87536 | -104.66216 | 5437 ft | 5 kts | 0° |
| 2026-04-25 23:28 | 39.87575 | -104.66214 | 5437 ft | 9 kts | 2° |
| 2026-04-25 23:28 | 39.87612 | -104.66213 | 5437 ft | 7 kts | 0° |
| 2026-04-25 23:29 | 39.87652 | -104.66213 | 5437 ft | 0 kts | 0° |
| 2026-04-25 23:30 | 39.87674 | -104.66213 | 5437 ft | 7 kts | 0° |
| 2026-04-25 23:30 | 39.87748 | -104.66203 | 5437 ft | 13 kts | 44° |
| 2026-04-25 23:31 | 39.87755 | -104.66151 | 5437 ft | 0 kts | 89° |
| 2026-04-25 23:31 | 39.87755 | -104.66133 | 5437 ft | 15 kts | 90° |
| 2026-04-25 23:32 | 39.87751 | -104.65653 | 5437 ft | 86 kts | 90° |
| 2026-04-25 23:32 | 39.87746 | -104.64681 | 5445 ft | 124 kts | 91° |
| 2026-04-25 23:32 | 39.87765 | -104.63496 | 5612 ft | 136 kts | 90° |
| 2026-04-25 23:32 | 39.87594 | -104.62271 | 5857 ft | 141 kts | 113° |
| 2026-04-25 23:33 | 39.87378 | -104.61002 | 6112 ft | 146 kts | 102° |
| 2026-04-25 23:33 | 39.87187 | -104.59689 | 6362 ft | 149 kts | 102° |
| 2026-04-25 23:33 | 39.86992 | -104.58355 | 6614 ft | 151 kts | 102° |
| 2026-04-25 23:33 | 39.86785 | -104.56969 | 6842 ft | 160 kts | 105° |
| 2026-04-25 23:34 | 39.86144 | -104.55818 | 7098 ft | 162 kts | 150° |
| 2026-04-25 23:34 | 39.85055 | -104.55517 | 7366 ft | 164 kts | 176° |
| 2026-04-25 23:34 | 39.83898 | -104.55386 | 7622 ft | 168 kts | 175° |
| 2026-04-25 23:34 | 39.82735 | -104.55231 | 7873 ft | 171 kts | 175° |
| 2026-04-25 23:35 | 39.81540 | -104.55054 | 8128 ft | 173 kts | 174° |
| 2026-04-25 23:35 | 39.80348 | -104.54868 | 8343 ft | 177 kts | 174° |
| 2026-04-25 23:35 | 39.79117 | -104.54668 | 8547 ft | 180 kts | 174° |
| 2026-04-25 23:35 | 39.77862 | -104.54461 | 8751 ft | 182 kts | 174° |
| 2026-04-25 23:36 | 39.76606 | -104.54250 | 8952 ft | 184 kts | 174° |
| 2026-04-25 23:36 | 39.75759 | -104.54108 | 9087 ft | 184 kts | 174° |
| 2026-04-25 23:36 | 39.74062 | -104.53820 | 9355 ft | 185 kts | 174° |
| 2026-04-25 23:36 | 39.72784 | -104.53603 | 9556 ft | 186 kts | 174° |
| 2026-04-25 23:37 | 39.71496 | -104.53383 | 9758 ft | 186 kts | 174° |
| 2026-04-25 23:37 | 39.70217 | -104.53165 | 9958 ft | 186 kts | 174° |
| 2026-04-25 23:37 | 39.68935 | -104.52947 | 10158 ft | 187 kts | 174° |
| 2026-04-25 23:37 | 39.67644 | -104.52727 | 10319 ft | 189 kts | 174° |
| 2026-04-25 23:38 | 39.66348 | -104.52506 | 10470 ft | 191 kts | 174° |
| 2026-04-25 23:38 | 39.65031 | -104.52282 | 10622 ft | 192 kts | 174° |
| 2026-04-25 23:38 | 39.63701 | -104.52055 | 10774 ft | 193 kts | 174° |
| 2026-04-25 23:38 | 39.62373 | -104.51829 | 10906 ft | 195 kts | 174° |
| 2026-04-25 23:39 | 39.61010 | -104.51598 | 10934 ft | 201 kts | 174° |
| 2026-04-25 23:39 | 39.59607 | -104.51359 | 10938 ft | 206 kts | 174° |
| 2026-04-25 23:39 | 39.58157 | -104.51112 | 10938 ft | 210 kts | 174° |
| 2026-04-25 23:39 | 39.56694 | -104.50864 | 10937 ft | 213 kts | 174° |
| 2026-04-25 23:40 | 39.55225 | -104.50614 | 10937 ft | 215 kts | 174° |
| 2026-04-25 23:40 | 39.53735 | -104.50362 | 10937 ft | 216 kts | 174° |
| 2026-04-25 23:40 | 39.52252 | -104.50110 | 10936 ft | 217 kts | 174° |
| 2026-04-25 23:40 | 39.50741 | -104.49854 | 10936 ft | 218 kts | 174° |
| 2026-04-25 23:41 | 39.49242 | -104.49599 | 10936 ft | 218 kts | 174° |
| 2026-04-25 23:41 | 39.47745 | -104.49345 | 10936 ft | 218 kts | 174° |
| 2026-04-25 23:41 | 39.46232 | -104.49089 | 10936 ft | 218 kts | 174° |
| 2026-04-25 23:41 | 39.44740 | -104.48836 | 10936 ft | 218 kts | 174° |
| 2026-04-25 23:42 | 39.43234 | -104.48581 | 10936 ft | 219 kts | 174° |
| 2026-04-25 23:42 | 39.41725 | -104.48325 | 10936 ft | 219 kts | 174° |
| 2026-04-25 23:42 | 39.40219 | -104.48071 | 10936 ft | 219 kts | 174° |
| 2026-04-25 23:42 | 39.38710 | -104.47815 | 10936 ft | 219 kts | 174° |
| 2026-04-25 23:43 | 39.37209 | -104.47562 | 10936 ft | 219 kts | 174° |
| 2026-04-25 23:43 | 39.35697 | -104.47306 | 10936 ft | 219 kts | 174° |
| 2026-04-25 23:43 | 39.34182 | -104.47051 | 10936 ft | 219 kts | 174° |
| 2026-04-25 23:43 | 39.32688 | -104.46798 | 10936 ft | 219 kts | 174° |
| 2026-04-25 23:44 | 39.31174 | -104.46542 | 10936 ft | 219 kts | 174° |
| 2026-04-25 23:44 | 39.29666 | -104.46288 | 10936 ft | 219 kts | 174° |
| 2026-04-25 23:44 | 39.28162 | -104.46034 | 10936 ft | 219 kts | 174° |
| 2026-04-25 23:44 | 39.26665 | -104.45782 | 10936 ft | 219 kts | 174° |
| 2026-04-25 23:45 | 39.25156 | -104.45528 | 10936 ft | 219 kts | 174° |
| 2026-04-25 23:45 | 39.23650 | -104.45274 | 10936 ft | 219 kts | 174° |
| 2026-04-25 23:45 | 39.22138 | -104.45019 | 10936 ft | 219 kts | 174° |
| 2026-04-25 23:45 | 39.20630 | -104.44766 | 10936 ft | 219 kts | 174° |
| 2026-04-25 23:46 | 39.19117 | -104.44511 | 10936 ft | 219 kts | 174° |
| 2026-04-25 23:46 | 39.17622 | -104.44260 | 10936 ft | 219 kts | 174° |
| 2026-04-25 23:46 | 39.16113 | -104.44007 | 10936 ft | 219 kts | 174° |
| 2026-04-25 23:46 | 39.14589 | -104.43751 | 10936 ft | 219 kts | 174° |
| 2026-04-25 23:47 | 39.13094 | -104.43500 | 10936 ft | 219 kts | 174° |
| 2026-04-25 23:47 | 39.11581 | -104.43246 | 10936 ft | 219 kts | 174° |
| 2026-04-25 23:47 | 39.10066 | -104.42992 | 10936 ft | 219 kts | 174° |
| 2026-04-25 23:47 | 39.08548 | -104.42738 | 10936 ft | 219 kts | 174° |
| 2026-04-25 23:48 | 39.07052 | -104.42487 | 10936 ft | 219 kts | 174° |
| 2026-04-25 23:48 | 39.05533 | -104.42233 | 10936 ft | 219 kts | 174° |
| 2026-04-25 23:48 | 39.04023 | -104.41979 | 10936 ft | 219 kts | 174° |
| 2026-04-25 23:48 | 39.02533 | -104.41730 | 10936 ft | 219 kts | 174° |
| 2026-04-25 23:49 | 39.01017 | -104.41476 | 10936 ft | 219 kts | 174° |
| 2026-04-25 23:49 | 38.99504 | -104.41223 | 10936 ft | 219 kts | 174° |
| 2026-04-25 23:49 | 38.97988 | -104.40971 | 10828 ft | 224 kts | 174° |
| 2026-04-25 23:49 | 38.96420 | -104.40709 | 10634 ft | 230 kts | 174° |
| 2026-04-25 23:50 | 38.94828 | -104.40443 | 10438 ft | 234 kts | 174° |
| 2026-04-25 23:50 | 38.93214 | -104.40344 | 10062 ft | 226 kts | 194° |
| 2026-04-25 23:50 | 38.92005 | -104.41386 | 9683 ft | 209 kts | 235° |
| 2026-04-25 23:50 | 38.91716 | -104.43130 | 9299 ft | 199 kts | 280° |
| 2026-04-25 23:51 | 38.92448 | -104.44537 | 8999 ft | 191 kts | 325° |
| 2026-04-25 23:51 | 38.93568 | -104.45351 | 8791 ft | 178 kts | 325° |
| 2026-04-25 23:51 | 38.94428 | -104.46375 | 8654 ft | 166 kts | 308° |
| 2026-04-25 23:51 | 38.95143 | -104.47591 | 8644 ft | 175 kts | 303° |
| 2026-04-25 23:52 | 38.95838 | -104.48943 | 8640 ft | 185 kts | 301° |
| 2026-04-25 23:52 | 38.96539 | -104.50382 | 8639 ft | 192 kts | 300° |
| 2026-04-25 23:52 | 38.97240 | -104.51846 | 8638 ft | 196 kts | 300° |
| 2026-04-25 23:52 | 38.97968 | -104.53363 | 8637 ft | 200 kts | 300° |
| 2026-04-25 23:53 | 38.98696 | -104.54886 | 8636 ft | 202 kts | 300° |
| 2026-04-25 23:53 | 38.99434 | -104.56429 | 8636 ft | 203 kts | 300° |
| 2026-04-25 23:53 | 39.00175 | -104.57980 | 8636 ft | 204 kts | 300° |
| 2026-04-25 23:53 | 39.00916 | -104.59544 | 8635 ft | 205 kts | 298° |
| 2026-04-25 23:54 | 39.01438 | -104.61240 | 8635 ft | 204 kts | 284° |
| 2026-04-25 23:54 | 39.01659 | -104.63031 | 8631 ft | 196 kts | 271° |
| 2026-04-25 23:54 | 39.01584 | -104.64704 | 8630 ft | 182 kts | 260° |
| 2026-04-25 23:54 | 39.01274 | -104.66222 | 8629 ft | 170 kts | 249° |
| 2026-04-25 23:55 | 39.00779 | -104.67562 | 8641 ft | 159 kts | 239° |
| 2026-04-25 23:55 | 39.00172 | -104.68661 | 8634 ft | 145 kts | 230° |
| 2026-04-25 23:55 | 38.99490 | -104.69550 | 8628 ft | 134 kts | 221° |
| 2026-04-25 23:55 | 38.98772 | -104.70245 | 8629 ft | 127 kts | 213° |
| 2026-04-25 23:56 | 38.97943 | -104.70825 | 8642 ft | 142 kts | 205° |
| 2026-04-25 23:56 | 38.96986 | -104.71273 | 8640 ft | 152 kts | 197° |
| 2026-04-25 23:56 | 38.95945 | -104.71529 | 8633 ft | 150 kts | 187° |
| 2026-04-25 23:56 | 38.94952 | -104.71568 | 8553 ft | 139 kts | 182° |
| 2026-04-25 23:57 | 38.93992 | -104.71574 | 8394 ft | 136 kts | 182° |
| 2026-04-25 23:57 | 38.93050 | -104.71576 | 8230 ft | 135 kts | 182° |
| 2026-04-25 23:57 | 38.92122 | -104.71577 | 8062 ft | 134 kts | 181° |
| 2026-04-25 23:57 | 38.91194 | -104.71578 | 7891 ft | 134 kts | 181° |
| 2026-04-25 23:58 | 38.90271 | -104.71579 | 7716 ft | 131 kts | 181° |
| 2026-04-25 23:58 | 38.89366 | -104.71581 | 7545 ft | 129 kts | 181° |
| 2026-04-25 23:58 | 38.88475 | -104.71581 | 7376 ft | 128 kts | 181° |
| 2026-04-25 23:58 | 38.87604 | -104.71583 | 7210 ft | 124 kts | 181° |
| 2026-04-25 23:59 | 38.86755 | -104.71584 | 7048 ft | 119 kts | 181° |
| 2026-04-25 23:59 | 38.85938 | -104.71585 | 6893 ft | 115 kts | 181° |
| 2026-04-25 23:59 | 38.85148 | -104.71586 | 6745 ft | 111 kts | 181° |
| 2026-04-25 23:59 | 38.84400 | -104.71587 | 6603 ft | 107 kts | 181° |
| 2026-04-26 00:00 | 38.83656 | -104.71588 | 6464 ft | 105 kts | 181° |
| 2026-04-26 00:00 | 38.82929 | -104.71586 | 6307 ft | 105 kts | 180° |
| 2026-04-26 00:00 | 38.82216 | -104.71581 | 6195 ft | 100 kts | 182° |
| 2026-04-26 00:00 | 38.81685 | -104.71591 | 6190 ft | 26 kts | 185° |